createdAt,value
2018-03-01T00:01:58.228Z,-9.82
2018-03-01T00:04:26.689Z,-9.84
2018-03-01T00:06:55.233Z,-9.87
2018-03-01T00:09:23.653Z,-9.94
2018-03-01T00:11:52.011Z,-10.00
2018-03-01T00:14:20.366Z,-10.02
2018-03-01T00:16:48.718Z,-9.99
2018-03-01T00:19:17.106Z,-10.03
2018-03-01T00:21:45.468Z,-10.03
2018-03-01T00:24:13.887Z,-10.07
2018-03-01T00:26:42.248Z,-10.11
2018-03-01T00:29:10.989Z,-10.16
2018-03-01T00:31:39.364Z,-10.18
2018-03-01T00:34:07.709Z,-10.23
2018-03-01T00:36:36.333Z,-10.26
2018-03-01T00:39:04.666Z,-10.29
2018-03-01T00:41:33.037Z,-10.34
2018-03-01T00:44:01.394Z,-10.41
2018-03-01T00:46:29.727Z,-10.45
2018-03-01T00:48:58.074Z,-10.51
2018-03-01T00:51:26.466Z,-10.55
2018-03-01T00:53:54.803Z,-10.64
2018-03-01T00:56:23.240Z,-10.74
2018-03-01T00:58:51.657Z,-10.81
2018-03-01T01:01:20.005Z,-10.86
2018-03-01T01:03:48.371Z,-10.80
2018-03-01T01:06:16.714Z,-10.92
2018-03-01T01:08:45.106Z,-11.00
2018-03-01T01:11:13.445Z,-11.03
2018-03-01T01:13:41.834Z,-11.12
2018-03-01T01:16:10.181Z,-11.19
2018-03-01T01:18:38.621Z,-11.20
2018-03-01T01:21:06.984Z,-11.22
2018-03-01T01:23:35.317Z,-11.23
2018-03-01T01:26:03.681Z,-11.20
2018-03-01T01:28:32.077Z,-11.13
2018-03-01T01:31:01.394Z,-11.04
2018-03-01T01:33:29.768Z,-11.02
2018-03-01T01:35:58.108Z,-11.00
2018-03-01T01:38:27.150Z,-11.00
2018-03-01T01:40:55.581Z,-11.01
2018-03-01T01:43:23.965Z,-11.00
2018-03-01T01:45:52.410Z,-11.11
2018-03-01T01:48:20.827Z,-11.14
2018-03-01T01:51:01.032Z,-11.08
2018-03-01T01:53:29.467Z,-11.20
2018-03-01T01:55:57.821Z,-11.22
2018-03-01T01:58:26.931Z,-11.29
2018-03-01T02:00:56.409Z,-11.27
2018-03-01T02:03:24.740Z,-11.20
2018-03-01T02:05:53.105Z,-11.20
2018-03-01T02:08:21.559Z,-11.26
2018-03-01T02:10:49.916Z,-11.33
2018-03-01T02:13:18.256Z,-11.34
2018-03-01T02:15:46.610Z,-11.40
2018-03-01T02:18:14.965Z,-11.53
2018-03-01T02:20:43.749Z,-11.57
2018-03-01T02:23:12.101Z,-11.61
2018-03-01T02:25:40.436Z,-11.68
2018-03-01T02:28:08.856Z,-11.73
2018-03-01T02:30:37.242Z,-11.75
2018-03-01T02:33:05.569Z,-11.78
2018-03-01T02:35:34.024Z,-11.85
2018-03-01T02:38:02.359Z,-11.88
2018-03-01T02:40:33.803Z,-11.94
2018-03-01T02:43:02.223Z,-11.92
2018-03-01T02:45:30.560Z,-11.94
2018-03-01T02:47:58.978Z,-11.90
2018-03-01T02:50:27.321Z,-11.86
2018-03-01T02:52:55.746Z,-11.85
2018-03-01T02:55:24.126Z,-11.80
2018-03-01T02:57:52.985Z,-11.70
2018-03-01T03:00:21.367Z,-11.70
2018-03-01T03:02:49.722Z,-11.64
2018-03-01T03:05:18.633Z,-11.59
2018-03-01T03:07:47.024Z,-11.58
2018-03-01T03:10:15.359Z,-11.59
2018-03-01T03:12:43.706Z,-11.56
2018-03-01T03:15:12.048Z,-11.54
2018-03-01T03:17:40.433Z,-11.61
2018-03-01T03:20:08.983Z,-11.58
2018-03-01T03:22:37.343Z,-11.55
2018-03-01T03:25:05.678Z,-11.50
2018-03-01T03:27:34.891Z,-11.53
2018-03-01T03:30:03.243Z,-11.57
2018-03-01T03:32:31.627Z,-11.58
2018-03-01T03:35:00.115Z,-11.60
2018-03-01T03:37:28.561Z,-11.57
2018-03-01T03:39:57.253Z,-11.68
2018-03-01T03:42:25.783Z,-11.75
2018-03-01T03:44:54.235Z,-11.78
2018-03-01T03:47:23.257Z,-11.86
2018-03-01T03:49:51.653Z,-11.87
2018-03-01T03:52:20.063Z,-11.78
2018-03-01T03:54:48.402Z,-11.92
2018-03-01T03:57:16.748Z,-12.02
2018-03-01T03:59:45.197Z,-12.08
2018-03-01T04:02:13.588Z,-12.06
2018-03-01T04:04:41.979Z,-12.13
2018-03-01T04:07:10.374Z,-12.25
2018-03-01T04:09:39.490Z,-12.18
2018-03-01T04:12:07.895Z,-12.21
2018-03-01T04:14:36.300Z,-12.21
2018-03-01T04:17:04.671Z,-12.25
2018-03-01T04:19:33.034Z,-12.36
2018-03-01T04:22:01.444Z,-12.37
2018-03-01T04:24:29.815Z,-12.41
2018-03-01T04:26:58.156Z,-12.42
2018-03-01T04:29:26.545Z,-12.37
2018-03-01T04:31:54.930Z,-12.36
2018-03-01T04:34:23.288Z,-12.41
2018-03-01T04:36:51.640Z,-12.36
2018-03-01T04:39:20.330Z,-12.30
2018-03-01T04:41:48.682Z,-12.27
2018-03-01T04:44:17.084Z,-12.14
2018-03-01T04:46:45.446Z,-12.10
2018-03-01T04:49:13.810Z,-12.06
2018-03-01T04:51:43.039Z,-12.01
2018-03-01T04:54:11.500Z,-11.95
2018-03-01T04:56:39.853Z,-11.89
2018-03-01T04:59:08.227Z,-11.85
2018-03-01T05:01:36.596Z,-11.84
2018-03-01T05:04:05.100Z,-11.77
2018-03-01T05:06:33.380Z,-11.80
2018-03-01T05:09:01.746Z,-11.75
2018-03-01T05:11:30.115Z,-11.71
2018-03-01T05:13:58.543Z,-11.75
2018-03-01T05:16:27.637Z,-11.68
2018-03-01T05:18:56.012Z,-11.66
2018-03-01T05:21:24.454Z,-11.68
2018-03-01T05:23:52.821Z,-11.75
2018-03-01T05:26:21.181Z,-11.75
2018-03-01T05:28:49.533Z,-11.77
2018-03-01T05:31:17.969Z,-11.84
2018-03-01T05:33:46.348Z,-11.84
2018-03-01T05:36:14.711Z,-11.80
2018-03-01T05:38:43.038Z,-11.85
2018-03-01T05:41:11.393Z,-11.87
2018-03-01T05:43:39.863Z,-11.94
2018-03-01T05:46:08.189Z,-11.96
2018-03-01T05:48:36.546Z,-11.98
2018-03-01T05:51:04.993Z,-11.97
2018-03-01T05:53:33.585Z,-11.94
2018-03-01T05:56:02.022Z,-11.91
2018-03-01T05:58:30.370Z,-11.89
2018-03-01T06:00:58.716Z,-11.94
2018-03-01T06:03:27.674Z,-11.99
2018-03-01T06:05:56.491Z,-11.46
2018-03-01T06:08:24.863Z,-11.27
2018-03-01T06:10:53.233Z,-10.81
2018-03-01T06:13:22.415Z,-10.58
2018-03-01T06:15:50.759Z,-10.67
2018-03-01T06:18:19.106Z,-10.83
2018-03-01T06:20:47.458Z,-10.88
2018-03-01T06:23:15.791Z,-10.78
2018-03-01T06:25:44.434Z,-10.46
2018-03-01T06:28:12.775Z,-9.94
2018-03-01T06:30:41.129Z,-9.56
2018-03-01T06:33:09.458Z,-9.41
2018-03-01T06:35:37.883Z,-8.77
2018-03-01T06:38:06.310Z,-8.27
2018-03-01T06:40:34.648Z,-7.74
2018-03-01T06:43:03.488Z,-7.06
2018-03-01T06:45:31.837Z,-7.25
2018-03-01T06:48:00.144Z,-6.99
2018-03-01T06:50:28.497Z,-6.72
2018-03-01T06:52:56.822Z,-5.91
2018-03-01T06:55:27.880Z,-5.76
2018-03-01T06:57:57.117Z,-5.94
2018-03-01T07:00:25.488Z,-6.85
2018-03-01T07:02:53.943Z,-6.46
2018-03-01T07:05:22.288Z,-6.58
2018-03-01T07:07:50.645Z,-6.34
2018-03-01T07:10:19.001Z,-5.86
2018-03-01T07:12:47.334Z,-5.77
2018-03-01T07:15:15.721Z,-5.75
2018-03-01T07:17:44.062Z,-6.32
2018-03-01T07:20:12.402Z,-6.30
2018-03-01T07:22:40.744Z,-6.43
2018-03-01T07:25:09.069Z,-5.33
2018-03-01T07:27:37.453Z,-5.03
2018-03-01T07:30:05.797Z,-5.54
2018-03-01T07:32:34.144Z,-5.61
2018-03-01T07:35:02.484Z,-5.39
2018-03-01T07:37:30.830Z,-4.88
2018-03-01T07:39:59.178Z,-4.61
2018-03-01T07:42:27.526Z,-4.64
2018-03-01T07:44:55.892Z,-4.69
2018-03-01T07:47:24.251Z,-4.39
2018-03-01T07:49:52.619Z,-3.80
2018-03-01T07:52:21.003Z,-3.36
2018-03-01T07:54:49.415Z,-3.04
2018-03-01T07:57:17.800Z,-2.10
2018-03-01T07:59:46.202Z,-3.25
2018-03-01T08:02:14.600Z,-2.88
2018-03-01T08:04:42.994Z,-3.46
2018-03-01T08:07:11.312Z,-3.39
2018-03-01T08:09:39.677Z,-2.80
2018-03-01T08:12:08.041Z,-1.80
2018-03-01T08:14:36.356Z,-1.01
2018-03-01T08:17:04.703Z,-1.29
2018-03-01T08:19:33.017Z,-1.68
2018-03-01T08:22:01.374Z,-2.07
2018-03-01T08:24:29.689Z,-2.21
2018-03-01T08:26:58.111Z,-1.81
2018-03-01T08:29:26.437Z,-1.49
2018-03-01T08:31:54.820Z,-1.40
2018-03-01T08:34:23.160Z,0.23
2018-03-01T08:36:51.584Z,-0.67
2018-03-01T08:39:19.913Z,-0.98
2018-03-01T08:41:48.246Z,-2.18
2018-03-01T08:44:16.658Z,-2.69
2018-03-01T08:46:44.984Z,-2.07
2018-03-01T08:49:13.373Z,0.03
2018-03-01T08:51:42.233Z,0.49
2018-03-01T08:54:10.580Z,-1.20
2018-03-01T08:56:38.916Z,-1.41
2018-03-01T08:59:07.303Z,-1.39
2018-03-01T09:01:35.681Z,-0.46
2018-03-01T09:04:04.015Z,0.28
2018-03-01T09:06:32.379Z,0.85
2018-03-01T09:09:00.706Z,1.10
2018-03-01T09:11:29.042Z,1.54
2018-03-01T09:13:57.467Z,0.73
2018-03-01T09:16:25.862Z,1.08
2018-03-01T09:18:54.207Z,1.66
2018-03-01T09:21:22.542Z,0.98
2018-03-01T09:23:50.974Z,1.32
2018-03-01T09:26:19.414Z,1.33
2018-03-01T09:28:47.750Z,1.29
2018-03-01T09:31:16.193Z,1.22
2018-03-01T09:33:44.530Z,1.46
2018-03-01T09:36:12.881Z,0.80
2018-03-01T09:38:41.266Z,1.29
2018-03-01T09:41:09.659Z,2.06
2018-03-01T09:43:38.061Z,1.12
2018-03-01T09:46:06.457Z,0.96
2018-03-01T09:48:34.797Z,0.17
2018-03-01T09:51:03.233Z,-1.01
2018-03-01T09:53:31.645Z,-0.19
2018-03-01T09:55:59.990Z,-0.02
2018-03-01T09:58:28.361Z,-0.53
2018-03-01T10:00:56.856Z,0.31
2018-03-01T10:03:25.177Z,0.77
2018-03-01T10:05:53.535Z,1.13
2018-03-01T10:08:21.873Z,1.07
2018-03-01T10:10:50.231Z,2.08
2018-03-01T10:13:18.554Z,1.90
2018-03-01T10:15:46.897Z,1.79
2018-03-01T10:18:15.226Z,1.46
2018-03-01T10:20:43.629Z,1.63
2018-03-01T10:23:12.039Z,1.97
2018-03-01T10:25:40.403Z,2.41
2018-03-01T10:28:08.728Z,2.10
2018-03-01T10:30:37.080Z,2.43
2018-03-01T10:33:05.400Z,2.24
2018-03-01T10:35:33.730Z,2.64
2018-03-01T10:38:02.060Z,2.65
2018-03-01T10:40:30.484Z,1.39
2018-03-01T10:42:58.809Z,0.08
2018-03-01T10:45:27.166Z,1.09
2018-03-01T10:47:55.520Z,1.15
2018-03-01T10:50:23.840Z,1.77
2018-03-01T10:52:52.185Z,2.68
2018-03-01T10:55:20.517Z,2.42
2018-03-01T10:57:48.869Z,1.30
2018-03-01T11:00:22.734Z,1.35
2018-03-01T11:02:51.229Z,2.11
2018-03-01T11:05:19.547Z,2.09
2018-03-01T11:07:47.862Z,2.47
2018-03-01T11:10:16.211Z,2.66
2018-03-01T11:12:44.538Z,1.38
2018-03-01T11:15:12.879Z,1.55
2018-03-01T11:17:41.268Z,1.95
2018-03-01T11:20:09.615Z,2.61
2018-03-01T11:22:37.940Z,2.32
2018-03-01T11:25:06.282Z,2.73
2018-03-01T11:27:34.601Z,2.21
2018-03-01T11:30:03.021Z,2.22
2018-03-01T11:32:31.421Z,2.01
2018-03-01T11:35:00.010Z,1.53
2018-03-01T11:37:28.326Z,2.07
2018-03-01T11:39:56.654Z,2.41
2018-03-01T11:42:25.087Z,3.18
2018-03-01T11:44:53.444Z,3.55
2018-03-01T11:47:21.792Z,3.41
2018-03-01T11:49:50.150Z,3.26
2018-03-01T11:52:18.553Z,2.71
2018-03-01T11:54:46.887Z,2.86
2018-03-01T12:11:43.635Z,4.40
2018-03-01T12:14:12.068Z,4.08
2018-03-01T12:16:41.252Z,3.92
2018-03-01T12:19:09.660Z,4.14
2018-03-01T12:21:38.060Z,4.25
2018-03-01T12:24:06.456Z,4.22
2018-03-01T12:26:34.792Z,4.02
2018-03-01T12:29:03.217Z,3.70
2018-03-01T12:31:31.522Z,3.82
2018-03-01T12:33:59.918Z,3.56
2018-03-01T12:36:28.248Z,3.78
2018-03-01T12:38:56.607Z,3.79
2018-03-01T12:41:24.995Z,3.85
2018-03-01T12:43:53.318Z,3.30
2018-03-01T12:46:21.852Z,3.27
2018-03-01T12:48:50.223Z,2.89
2018-03-01T12:51:18.558Z,2.28
2018-03-01T12:53:46.920Z,2.43
2018-03-01T12:56:15.244Z,2.23
2018-03-01T12:58:43.624Z,2.37
2018-03-01T13:01:11.968Z,3.13
2018-03-01T13:03:40.303Z,3.14
2018-03-01T13:06:08.771Z,2.76
2018-03-01T13:08:37.166Z,1.85
2018-03-01T13:11:05.764Z,2.47
2018-03-01T13:13:34.180Z,2.70
2018-03-01T13:16:02.653Z,2.77
2018-03-01T13:18:31.395Z,2.89
2018-03-01T13:20:59.737Z,2.59
2018-03-01T13:23:28.057Z,2.93
2018-03-01T13:25:56.567Z,2.81
2018-03-01T13:28:24.905Z,3.54
2018-03-01T13:30:57.896Z,3.31
2018-03-01T13:36:29.574Z,2.86
2018-03-01T13:38:58.014Z,2.89
2018-03-01T13:41:26.402Z,2.94
2018-03-01T13:43:54.918Z,1.76
2018-03-01T13:46:39.195Z,1.58
2018-03-01T13:49:07.567Z,1.76
2018-03-01T13:51:35.972Z,1.58
2018-03-01T13:54:04.286Z,1.63
2018-03-01T13:56:32.936Z,1.88
2018-03-01T13:59:01.455Z,2.21
2018-03-01T14:01:30.241Z,2.58
2018-03-01T14:03:58.572Z,2.19
2018-03-01T14:06:27.929Z,2.17
2018-03-01T14:08:58.822Z,1.71
2018-03-01T14:11:27.150Z,1.83
2018-03-01T14:13:55.626Z,1.84
2018-03-01T14:16:24.002Z,1.66
2018-03-01T14:18:55.489Z,1.17
2018-03-01T14:21:29.725Z,1.07
2018-03-01T14:27:15.765Z,0.95
2018-03-01T14:29:47.818Z,0.56
2018-03-01T14:32:16.176Z,1.03
2018-03-01T14:34:44.619Z,1.31
2018-03-01T14:37:13.011Z,1.45
2018-03-01T14:39:41.542Z,1.24
2018-03-01T14:42:10.551Z,1.63
2018-03-01T14:44:38.870Z,1.40
2018-03-01T14:47:07.198Z,1.07
2018-03-01T14:49:35.586Z,0.68
2018-03-01T14:52:03.991Z,0.48
2018-03-01T14:54:32.386Z,0.10
2018-03-01T14:57:00.729Z,0.12
2018-03-01T14:59:29.030Z,0.18
2018-03-01T15:01:57.353Z,-0.23
2018-03-01T15:04:25.720Z,-0.23
2018-03-01T15:06:54.010Z,-0.38
2018-03-01T15:09:22.416Z,-0.66
2018-03-01T15:11:50.758Z,-0.37
2018-03-01T15:14:19.313Z,-0.61
2018-03-01T15:16:47.630Z,-0.72
2018-03-01T15:19:15.984Z,-0.92
2018-03-01T15:21:44.361Z,-1.03
2018-03-01T15:24:12.664Z,-1.01
2018-03-01T15:26:40.998Z,-1.24
2018-03-01T15:29:09.327Z,-1.08
2018-03-01T15:31:37.747Z,-1.11
2018-03-01T15:34:06.137Z,-1.35
2018-03-01T15:36:34.538Z,-1.45
2018-03-01T15:39:02.863Z,-1.65
2018-03-01T15:41:31.782Z,-1.67
2018-03-01T15:44:00.194Z,-1.61
2018-03-01T15:46:28.516Z,-1.88
2018-03-01T15:48:56.902Z,-1.92
2018-03-01T15:51:25.324Z,-2.05
2018-03-01T15:53:53.682Z,-2.26
2018-03-01T15:56:22.100Z,-2.38
2018-03-01T15:58:50.577Z,-2.49
2018-03-01T16:01:18.904Z,-2.54
2018-03-01T16:03:47.262Z,-2.68
2018-03-01T16:06:15.600Z,-2.66
2018-03-01T16:08:44.043Z,-2.70
2018-03-01T16:11:12.422Z,-2.70
2018-03-01T16:13:40.766Z,-2.84
2018-03-01T16:16:09.086Z,-3.05
2018-03-01T16:18:37.418Z,-3.25
2018-03-01T16:21:05.753Z,-3.31
2018-03-01T16:23:34.242Z,-3.39
2018-03-01T16:26:02.587Z,-3.45
2018-03-01T16:28:30.991Z,-3.56
2018-03-01T16:30:59.373Z,-3.60
2018-03-01T16:33:27.781Z,-3.69
2018-03-01T16:35:56.145Z,-3.82
2018-03-01T16:38:24.482Z,-3.88
2018-03-01T16:40:52.944Z,-3.92
2018-03-01T16:43:21.291Z,-3.96
2018-03-01T16:45:49.800Z,-3.93
2018-03-01T16:48:18.213Z,-4.01
2018-03-01T16:50:46.612Z,-4.09
2018-03-01T16:53:15.011Z,-4.17
2018-03-01T16:55:43.350Z,-4.17
2018-03-01T16:58:11.694Z,-4.23
2018-03-01T17:00:40.098Z,-4.27
2018-03-01T17:03:08.426Z,-4.31
2018-03-01T17:05:36.863Z,-4.36
2018-03-01T17:08:05.256Z,-4.47
2018-03-01T17:10:33.572Z,-4.49
2018-03-01T17:13:01.928Z,-4.52
2018-03-01T17:15:30.245Z,-4.59
2018-03-01T17:17:58.560Z,-4.64
2018-03-01T17:20:26.906Z,-4.66
2018-03-01T17:22:55.790Z,-4.64
2018-03-01T17:25:24.130Z,-4.69
2018-03-01T17:27:52.513Z,-4.73
2018-03-01T17:30:20.896Z,-4.76
2018-03-01T17:32:49.232Z,-4.78
2018-03-01T17:35:17.562Z,-4.92
2018-03-01T17:37:45.982Z,-5.01
2018-03-01T17:40:14.325Z,-5.05
2018-03-01T17:42:42.736Z,-5.08
2018-03-01T17:45:11.079Z,-5.08
2018-03-01T17:47:39.462Z,-5.14
2018-03-01T17:50:07.786Z,-5.21
2018-03-01T17:52:36.337Z,-5.28
2018-03-01T17:55:04.675Z,-5.31
2018-03-01T17:57:33.110Z,-5.42
2018-03-01T18:00:01.427Z,-5.44
2018-03-01T18:02:29.766Z,-5.48
2018-03-01T18:04:58.086Z,-5.50
2018-03-01T18:07:26.510Z,-5.54
2018-03-01T18:09:54.837Z,-5.57
2018-03-01T18:12:23.179Z,-5.59
2018-03-01T18:14:51.593Z,-5.61
2018-03-01T18:17:20.018Z,-5.69
2018-03-01T18:19:48.412Z,-5.74
2018-03-01T18:22:16.747Z,-5.79
2018-03-01T18:24:45.083Z,-5.79
2018-03-01T18:27:13.480Z,-5.85
2018-03-01T18:29:41.983Z,-5.85
2018-03-01T18:32:10.307Z,-5.89
2018-03-01T18:34:38.632Z,-5.93
2018-03-01T18:37:06.989Z,-5.97
2018-03-01T18:39:35.353Z,-6.01
2018-03-01T18:42:03.687Z,-6.04
2018-03-01T18:44:32.016Z,-6.03
2018-03-01T18:47:00.382Z,-6.05
2018-03-01T18:49:28.777Z,-6.13
2018-03-01T18:51:57.238Z,-6.14
2018-03-01T18:54:25.601Z,-6.16
2018-03-01T18:56:53.921Z,-6.18
2018-03-01T18:59:22.263Z,-6.20
2018-03-01T19:01:50.636Z,-6.26
2018-03-01T19:04:18.981Z,-6.27
2018-03-01T19:06:47.457Z,-6.02
2018-03-01T19:09:15.865Z,-5.92
2018-03-01T19:11:44.187Z,-6.10
2018-03-01T19:14:12.534Z,-6.18
2018-03-01T19:16:40.917Z,-6.22
2018-03-01T19:19:09.249Z,-6.25
2018-03-01T19:21:37.569Z,-6.34
2018-03-01T19:24:06.056Z,-6.36
2018-03-01T19:26:34.375Z,-6.35
2018-03-01T19:29:02.785Z,-6.35
2018-03-01T19:31:31.127Z,-6.39
2018-03-01T19:33:59.569Z,-6.43
2018-03-01T19:36:27.978Z,-6.50
2018-03-01T19:38:57.265Z,-6.50
2018-03-01T19:41:25.647Z,-6.53
2018-03-01T19:43:54.022Z,-6.57
2018-03-01T19:46:22.445Z,-6.62
2018-03-01T19:48:50.778Z,-6.66
2018-03-01T19:51:19.139Z,-6.70
2018-03-01T19:53:47.479Z,-6.67
2018-03-01T19:56:15.817Z,-6.75
2018-03-01T19:58:44.186Z,-6.77
2018-03-01T20:01:12.597Z,-6.78
2018-03-01T20:03:40.956Z,-6.82
2018-03-01T20:06:09.401Z,-6.87
2018-03-01T20:08:37.799Z,-6.88
2018-03-01T20:11:06.130Z,-6.88
2018-03-01T20:13:34.496Z,-6.90
2018-03-01T20:16:02.840Z,-6.91
2018-03-01T20:18:31.197Z,-6.93
2018-03-01T20:20:59.535Z,-6.97
2018-03-01T20:23:27.948Z,-6.96
2018-03-01T20:25:56.261Z,-7.01
2018-03-01T20:28:24.625Z,-7.04
2018-03-01T20:30:52.946Z,-7.05
2018-03-01T20:33:21.534Z,-7.11
2018-03-01T20:35:49.936Z,-7.15
2018-03-01T20:38:18.307Z,-7.19
2018-03-01T20:40:46.624Z,-7.22
2018-03-01T20:43:14.971Z,-7.25
2018-03-01T20:45:43.307Z,-7.25
2018-03-01T20:48:11.858Z,-7.28
2018-03-01T20:50:40.194Z,-7.35
2018-03-01T20:53:08.815Z,-7.36
2018-03-01T20:55:37.244Z,-7.38
2018-03-01T20:58:05.587Z,-7.38
2018-03-01T21:00:34.020Z,-7.38
2018-03-01T21:03:02.345Z,-7.40
2018-03-01T21:05:30.709Z,-7.41
2018-03-01T21:07:59.109Z,-7.41
2018-03-01T21:10:27.474Z,-7.47
2018-03-01T21:12:55.797Z,-7.50
2018-03-01T21:15:24.212Z,-7.48
2018-03-01T21:17:52.571Z,-7.46
2018-03-01T21:20:21.073Z,-7.52
2018-03-01T21:22:49.439Z,-7.52
2018-03-01T21:25:17.732Z,-7.54
2018-03-01T21:27:46.133Z,-7.55
2018-03-01T21:30:14.473Z,-7.55
2018-03-01T21:32:42.859Z,-7.61
2018-03-01T21:35:11.194Z,-7.58
2018-03-01T21:37:39.544Z,-7.66
2018-03-01T21:40:07.866Z,-7.70
2018-03-01T21:42:36.382Z,-7.68
2018-03-01T21:45:04.784Z,-7.72
2018-03-01T21:47:33.146Z,-7.73
2018-03-01T21:50:01.483Z,-7.74
2018-03-01T21:52:29.881Z,-7.78
2018-03-01T21:54:58.216Z,-7.77
2018-03-01T21:57:26.565Z,-7.76
2018-03-01T21:59:54.930Z,-7.74
2018-03-01T22:02:23.322Z,-7.78
2018-03-01T22:04:51.730Z,-7.82
2018-03-01T22:07:20.098Z,-7.85
2018-03-01T22:09:48.489Z,-7.87
2018-03-01T22:12:16.842Z,-7.84
2018-03-01T22:14:45.185Z,-7.80
2018-03-01T22:17:13.524Z,-7.83
2018-03-01T22:19:42.198Z,-7.88
2018-03-01T22:22:10.590Z,-7.92
2018-03-01T22:24:38.960Z,-7.94
2018-03-01T22:27:07.310Z,-7.98
2018-03-01T22:29:35.749Z,-7.98
2018-03-01T22:32:04.141Z,-8.01
2018-03-01T22:34:32.539Z,-8.05
2018-03-01T22:37:00.869Z,-8.03
2018-03-01T22:39:29.214Z,-8.09
2018-03-01T22:41:57.609Z,-8.11
2018-03-01T22:44:26.049Z,-8.14
2018-03-01T22:46:54.437Z,-8.18
2018-03-01T22:49:22.867Z,-8.21
2018-03-01T22:51:51.234Z,-8.18
2018-03-01T22:54:19.560Z,-8.20
2018-03-01T22:56:47.898Z,-8.24
2018-03-01T22:59:16.237Z,-8.23
2018-03-01T23:01:44.639Z,-8.27
2018-03-01T23:04:12.962Z,-8.30
2018-03-01T23:06:41.298Z,-8.36
2018-03-01T23:09:09.646Z,-8.39
2018-03-01T23:11:37.975Z,-8.36
2018-03-01T23:14:06.411Z,-8.37
2018-03-01T23:16:34.745Z,-8.41
2018-03-01T23:19:03.083Z,-8.49
2018-03-01T23:21:31.408Z,-8.47
2018-03-01T23:23:59.757Z,-8.47
2018-03-01T23:26:28.188Z,-8.46
2018-03-01T23:28:56.547Z,-8.51
2018-03-01T23:31:24.890Z,-8.48
2018-03-01T23:33:53.217Z,-8.53
2018-03-01T23:36:21.633Z,-8.57
2018-03-01T23:38:49.963Z,-8.54
2018-03-01T23:41:18.310Z,-8.56
2018-03-01T23:43:46.645Z,-8.56
2018-03-01T23:46:15.093Z,-8.57
2018-03-01T23:48:43.478Z,-8.56
2018-03-01T23:51:11.892Z,-8.58
2018-03-01T23:53:40.221Z,-8.59
2018-03-01T23:56:08.558Z,-8.62
2018-03-01T23:58:36.942Z,-8.66
